Time;durP1;ratioP1;P1;durP2;ratioP2;P2;SDS_P1;SDS_P2;PMS_P1;PMS_P2;Temp;Humidity;BMP_temperature;BMP_pressure;BME280_temperature;BME280_humidity;BME280_pressure;Samples;Min_cycle;Max_cycle;Signal;HPM_P1;HPM_P2
2021/03/11 00:01:32;;;;;;;8.57;6.93;;;;;;;0.71;74.83;94566.59;4212433;28;20048;-84
2021/03/11 00:03:34;;;;;;;10.93;7.75;;;;;;;0.74;75.17;94562.09;4203900;28;20048;-82
2021/03/11 00:05:35;;;;;;;9.95;7.68;;;;;;;0.84;75.18;94566.59;4207246;28;20104;-85
2021/03/11 00:07:37;;;;;;;10.23;7.95;;;;;;;0.94;74.94;94563.31;4191796;28;20050;-85
2021/03/11 00:09:38;;;;;;;9.00;7.50;;;;;;;1.00;74.55;94564.66;4183050;28;20099;-71
2021/03/11 00:11:40;;;;;;;9.93;7.47;;;;;;;1.08;73.86;94569.31;4195987;28;20051;-83
2021/03/11 00:13:41;;;;;;;9.20;7.18;;;;;;;1.10;73.41;94568.25;4209799;28;20608;-85
2021/03/11 00:15:43;;;;;;;8.20;6.47;;;;;;;1.05;73.39;94572.91;4206532;28;20052;-84
2021/03/11 00:17:45;;;;;;;8.93;6.82;;;;;;;1.02;73.51;94575.69;4208773;28;20109;-85
2021/03/11 00:19:47;;;;;;;7.82;6.47;;;;;;;0.92;73.47;94574.66;4229300;28;20078;-85
2021/03/11 00:21:48;;;;;;;10.35;7.22;;;;;;;0.99;73.78;94563.84;4218394;28;20062;-82
2021/03/11 00:23:49;;;;;;;8.13;6.60;;;;;;;0.96;73.19;94570.94;4227094;28;20056;-86
2021/03/11 00:25:51;;;;;;;8.40;7.00;;;;;;;0.97;73.41;94570.03;4221970;28;20067;-84
2021/03/11 00:27:52;;;;;;;11.18;6.55;;;;;;;1.00;73.38;94572.41;4228799;28;20066;-87
2021/03/11 00:29:54;;;;;;;8.80;6.80;;;;;;;0.97;73.15;94572.63;4221984;28;20105;-84
2021/03/11 00:31:55;;;;;;;8.35;6.68;;;;;;;1.00;73.01;94575.78;4224167;28;20044;-84
2021/03/11 00:33:57;;;;;;;8.30;6.20;;;;;;;1.02;72.97;94573.13;4220577;28;20047;-85
2021/03/11 00:35:58;;;;;;;8.82;6.88;;;;;;;0.99;73.10;94571.56;4210517;28;20062;-69
2021/03/11 00:37:59;;;;;;;8.27;6.38;;;;;;;1.04;73.01;94567.88;4210332;28;20438;-70
2021/03/11 00:40:01;;;;;;;8.90;6.60;;;;;;;1.06;72.72;94566.81;4210392;28;20106;-70
2021/03/11 00:42:02;;;;;;;8.50;6.65;;;;;;;1.02;72.35;94567.97;4210782;28;20534;-72
2021/03/11 00:44:04;;;;;;;9.50;7.10;;;;;;;1.00;72.71;94577.56;4202349;28;20052;-72
2021/03/11 00:46:23;;;;;;;7.75;6.57;;;;;;;0.95;73.24;94577.06;4204271;28;20039;-72
2021/03/11 00:48:24;;;;;;;8.70;6.82;;;;;;;0.95;72.44;94571.91;4206700;28;20055;-72
2021/03/11 00:50:26;;;;;;;8.30;7.05;;;;;;;0.96;72.82;94566.59;4196674;28;20048;-70
2021/03/11 00:52:27;;;;;;;7.60;6.72;;;;;;;1.05;72.69;94570.31;4205977;28;20419;-70
2021/03/11 00:54:28;;;;;;;9.57;6.82;;;;;;;1.14;72.43;94576.59;4201807;28;20051;-72
2021/03/11 00:56:29;;;;;;;8.82;6.80;;;;;;;1.17;72.32;94573.81;4192317;28;20518;-71
2021/03/11 00:58:31;;;;;;;8.20;6.60;;;;;;;1.17;71.53;94574.66;4196247;28;20040;-69
2021/03/11 01:00:32;;;;;;;7.60;6.60;;;;;;;1.23;71.72;94578.56;4193674;28;20052;-70
2021/03/11 01:02:33;;;;;;;7.15;5.93;;;;;;;1.23;71.04;94573.41;4197244;28;20113;-71
2021/03/11 01:04:35;;;;;;;7.72;6.28;;;;;;;1.19;71.37;94570.22;4211082;28;20086;-70
2021/03/11 01:06:36;;;;;;;7.90;6.47;;;;;;;1.09;71.29;94570.94;4211581;28;20067;-71
2021/03/11 01:08:37;;;;;;;8.82;7.22;;;;;;;1.11;71.74;94569.91;4223049;28;20509;-71
2021/03/11 01:10:38;;;;;;;10.57;7.07;;;;;;;1.06;71.90;94571.97;4225499;28;20055;-70
2021/03/11 01:12:40;;;;;;;9.00;6.85;;;;;;;1.10;71.71;94567.41;4213289;28;20051;-71
2021/03/11 01:14:42;;;;;;;8.70;6.85;;;;;;;1.09;71.59;94558.84;4220714;28;20063;-71
2021/03/11 01:16:49;;;;;;;8.50;7.20;;;;;;;1.04;71.47;94560.13;4217162;28;20051;-69
2021/03/11 01:18:50;;;;;;;8.23;6.72;;;;;;;0.95;72.04;94562.41;4200533;28;20050;-70
2021/03/11 01:20:52;;;;;;;8.35;6.78;;;;;;;0.96;72.03;94560.63;4208225;28;20122;-70
2021/03/11 01:22:53;;;;;;;8.88;7.25;;;;;;;0.95;72.16;94562.41;4210856;28;20043;-69
2021/03/11 01:24:54;;;;;;;10.23;6.60;;;;;;;0.95;72.28;94561.56;4210597;28;20054;-70
2021/03/11 01:26:55;;;;;;;8.15;6.63;;;;;;;0.96;72.07;94565.78;4211008;28;20247;-71
2021/03/11 01:28:56;;;;;;;9.57;7.50;;;;;;;1.00;72.10;94562.91;4208671;28;20040;-71
2021/03/11 01:30:58;;;;;;;8.20;6.60;;;;;;;1.05;71.34;94562.56;4206804;28;20048;-70
2021/03/11 01:32:59;;;;;;;9.50;6.70;;;;;;;1.07;71.19;94568.47;4209564;28;20119;-70
2021/03/11 01:35:00;;;;;;;9.10;6.65;;;;;;;1.09;71.41;94571.75;4209762;28;20425;-71
2021/03/11 01:37:02;;;;;;;9.25;7.28;;;;;;;1.13;71.81;94573.19;4200863;28;20056;-70
2021/03/11 01:39:03;;;;;;;8.27;6.82;;;;;;;1.21;71.04;94575.28;4207033;28;20063;-72
2021/03/11 01:41:05;;;;;;;9.02;7.30;;;;;;;1.16;71.16;94575.59;4212417;28;20051;-70
2021/03/11 01:43:06;;;;;;;8.65;7.07;;;;;;;1.16;70.75;94573.00;4227124;28;20043;-70
2021/03/11 01:45:08;;;;;;;8.82;6.88;;;;;;;1.09;71.10;94571.75;4222910;28;20048;-69
2021/03/11 01:47:10;;;;;;;8.15;6.90;;;;;;;1.13;71.47;94583.53;4203334;28;20041;-71
2021/03/11 01:49:11;;;;;;;9.10;7.20;;;;;;;1.17;70.98;94584.97;4228578;28;20282;-70
2021/03/11 01:51:12;;;;;;;9.25;7.20;;;;;;;1.16;70.92;94583.34;4200735;28;20054;-71
2021/03/11 01:53:14;;;;;;;7.13;6.13;;;;;;;1.19;70.36;94577.13;4195148;28;20052;-72
2021/03/11 01:55:17;;;;;;;8.15;6.47;;;;;;;1.18;70.64;94586.63;4213133;28;20491;-85
2021/03/11 01:57:18;;;;;;;7.57;6.05;;;;;;;1.14;70.55;94576.59;4212334;28;20048;-83
2021/03/11 01:59:19;;;;;;;7.40;6.53;;;;;;;1.17;70.48;94584.16;4213206;28;20044;-85
2021/03/11 02:01:21;;;;;;;7.47;6.10;;;;;;;1.04;70.39;94575.59;4213836;28;20135;-81
2021/03/11 02:03:23;;;;;;;8.02;6.32;;;;;;;1.03;70.65;94582.50;4213396;28;20052;-85
2021/03/11 02:05:25;;;;;;;7.45;6.43;;;;;;;1.06;70.76;94577.13;4214574;28;20422;-84
2021/03/11 02:07:27;;;;;;;7.60;6.10;;;;;;;1.07;70.33;94577.97;4214774;28;20048;-84
2021/03/11 02:09:28;;;;;;;9.02;5.65;;;;;;;1.04;70.99;94571.25;4218139;28;20040;-85
2021/03/11 02:11:30;;;;;;;7.97;6.40;;;;;;;1.02;71.00;94570.53;4213059;28;20044;-84
2021/03/11 02:13:44;;;;;;;7.20;6.22;;;;;;;1.03;70.45;94569.59;4214664;28;20200;-84
2021/03/11 02:15:52;;;;;;;7.95;6.28;;;;;;;1.01;70.52;94563.72;4199350;28;20060;-84
2021/03/11 02:18:03;;;;;;;7.93;6.30;;;;;;;1.00;70.38;94562.91;4199167;28;20052;-83
2021/03/11 02:20:28;;;;;;;7.07;6.20;;;;;;;0.99;70.29;94573.31;4213720;28;20125;-83
2021/03/11 02:22:56;;;;;;;7.68;5.85;;;;;;;0.93;70.40;94569.41;4223402;27;20121;-85
2021/03/11 02:25:13;;;;;;;6.68;5.72;;;;;;;0.93;70.86;94578.91;4241529;27;20066;-85
2021/03/11 02:27:39;;;;;;;7.43;6.50;;;;;;;1.01;70.92;94587.78;4234560;28;20044;-84
2021/03/11 02:29:42;;;;;;;8.23;6.55;;;;;;;1.02;70.49;94591.19;4224968;28;20039;-70
2021/03/11 02:31:46;;;;;;;6.57;5.28;;;;;;;1.00;70.63;94588.69;4222161;28;20055;-73
2021/03/11 02:33:48;;;;;;;8.80;6.30;;;;;;;1.07;70.48;94593.44;4226535;28;20134;-70
2021/03/11 02:35:51;;;;;;;7.15;5.93;;;;;;;1.02;70.11;94593.75;4212480;28;20101;-71
2021/03/11 02:37:54;;;;;;;7.10;5.65;;;;;;;0.91;69.87;94596.25;4194076;28;20052;-70
2021/03/11 02:39:58;;;;;;;7.45;6.07;;;;;;;0.88;70.45;94591.28;4193983;28;20051;-71
2021/03/11 02:42:00;;;;;;;7.30;5.90;;;;;;;0.89;70.00;94598.09;4225353;28;20070;-70
2021/03/11 02:44:01;;;;;;;7.10;5.78;;;;;;;0.93;70.22;94597.78;4229067;28;20047;-70
2021/03/11 02:46:03;;;;;;;7.38;5.78;;;;;;;0.91;70.38;94596.25;4227107;28;20043;-69
2021/03/11 02:48:07;;;;;;;7.68;5.97;;;;;;;0.95;70.11;94597.69;4211742;28;20047;-69
2021/03/11 02:50:09;;;;;;;6.95;6.20;;;;;;;0.99;70.18;94612.84;4230880;28;20417;-70
2021/03/11 02:52:11;;;;;;;6.57;4.93;;;;;;;1.03;69.57;94605.72;4210565;28;20055;-70
2021/03/11 02:54:12;;;;;;;6.50;5.10;;;;;;;1.06;70.02;94609.88;4211089;28;20048;-71
2021/03/11 02:56:31;;;;;;;6.88;5.18;;;;;;;1.05;70.08;94614.16;4233252;27;20055;-85
2021/03/11 02:58:33;;;;;;;7.68;5.85;;;;;;;1.06;69.45;94612.44;4202481;28;20447;-84
2021/03/11 03:00:35;;;;;;;6.03;5.20;;;;;;;1.06;69.73;94618.41;4216812;28;20059;-84
2021/03/11 03:02:40;;;;;;;7.00;5.25;;;;;;;1.05;69.56;94621.09;4239522;28;20086;-83
2021/03/11 03:04:49;;;;;;;6.32;5.28;;;;;;;1.05;69.96;94624.50;4216929;28;20514;-83
2021/03/11 03:06:50;;;;;;;8.00;6.40;;;;;;;1.06;69.97;94626.16;4211089;28;20068;-81
2021/03/11 03:08:52;;;;;;;7.07;5.75;;;;;;;1.02;69.26;94632.44;4244369;28;20047;-83
2021/03/11 03:10:53;;;;;;;6.57;5.47;;;;;;;1.04;69.05;94633.19;4225416;28;20123;-83
2021/03/11 03:13:00;;;;;;;6.43;5.25;;;;;;;1.07;69.45;94626.97;4208999;28;20056;-83
2021/03/11 03:15:04;;;;;;;7.45;4.95;;;;;;;1.11;69.35;94631.00;4218261;28;20074;-85
2021/03/11 03:17:06;;;;;;;8.15;5.57;;;;;;;1.03;69.12;94623.75;4215982;28;20048;-84
2021/03/11 03:19:13;;;;;;;7.00;5.35;;;;;;;1.02;69.54;94629.88;4219820;28;20083;-82
2021/03/11 03:21:14;;;;;;;6.00;5.13;;;;;;;1.01;69.49;94634.22;4221591;28;20044;-82
2021/03/11 03:23:16;;;;;;;7.18;5.63;;;;;;;1.01;69.77;94630.78;4220003;28;20090;-83
2021/03/11 03:25:19;;;;;;;7.30;5.63;;;;;;;1.01;69.47;94635.94;4218719;28;20048;-85
2021/03/11 03:27:20;;;;;;;6.65;5.50;;;;;;;1.07;69.07;94635.53;4233210;28;20055;-82
2021/03/11 03:29:21;;;;;;;8.48;5.80;;;;;;;1.04;69.44;94634.94;4236663;28;20051;-82
2021/03/11 03:31:22;;;;;;;6.22;5.03;;;;;;;1.08;69.36;94641.53;4238149;28;20040;-82
2021/03/11 03:33:24;;;;;;;7.68;4.82;;;;;;;1.06;68.88;94644.22;4217621;28;20135;-83
2021/03/11 03:35:25;;;;;;;6.57;4.80;;;;;;;1.08;68.89;94642.38;4212207;28;20476;-69
2021/03/11 03:37:26;;;;;;;6.47;5.40;;;;;;;1.05;69.04;94639.16;4213642;28;20067;-71
2021/03/11 03:39:28;;;;;;;6.00;4.93;;;;;;;0.99;69.06;94648.13;4245746;27;20592;-69
2021/03/11 03:41:30;;;;;;;6.68;5.15;;;;;;;1.01;69.28;94644.53;4215485;28;20048;-71
2021/03/11 03:43:34;;;;;;;6.43;5.25;;;;;;;1.06;68.78;94638.25;4210887;28;20060;-69
2021/03/11 03:45:38;;;;;;;5.88;4.95;;;;;;;1.04;68.66;94640.91;4210223;28;20047;-69
2021/03/11 03:47:42;;;;;;;7.82;5.90;;;;;;;0.99;69.60;94645.53;4209678;28;20101;-83
2021/03/11 03:49:44;;;;;;;6.30;5.40;;;;;;;0.93;70.19;94640.81;4213322;28;20082;-84
2021/03/11 03:51:49;;;;;;;6.97;5.70;;;;;;;0.94;69.46;94637.28;4213812;28;20086;-84
2021/03/11 03:53:53;;;;;;;8.45;5.57;;;;;;;0.92;69.86;94644.31;4212903;28;20517;-84
2021/03/11 03:55:56;;;;;;;;;;;;;;;0.79;70.11;94649.44;4213932;28;20491;-84
2021/03/11 03:57:57;;;;;;;6.95;5.60;;;;;;;0.65;70.62;94655.53;4229744;28;19919;-84
2021/03/11 04:00:06;;;;;;;8.80;6.15;;;;;;;0.68;70.91;94650.16;4212961;28;20441;-84
2021/03/11 04:02:08;;;;;;;6.80;5.30;;;;;;;0.72;70.69;94643.06;4212589;28;20047;-84
2021/03/11 04:04:10;;;;;;;8.55;5.97;;;;;;;0.85;70.37;94653.38;4197801;28;20299;-84
2021/03/11 04:06:12;;;;;;;8.65;5.97;;;;;;;0.84;69.83;94649.13;4196694;28;20114;-85
2021/03/11 04:08:15;;;;;;;6.90;5.53;;;;;;;0.86;69.85;94652.44;4226625;28;20048;-83
2021/03/11 04:10:16;;;;;;;6.82;5.32;;;;;;;0.85;69.48;94653.38;4209813;28;20527;-70
2021/03/11 04:12:18;;;;;;;7.20;5.32;;;;;;;0.84;70.01;94656.88;4196919;28;20120;-69
2021/03/11 04:14:20;;;;;;;6.55;5.85;;;;;;;0.85;69.48;94650.81;4224589;27;20054;-69
2021/03/11 04:16:22;;;;;;;6.82;5.20;;;;;;;0.85;69.70;94655.97;4231678;27;20057;-70
2021/03/11 04:18:23;;;;;;;8.07;5.80;;;;;;;0.82;69.91;94662.97;4241637;27;20398;-70
2021/03/11 04:20:24;;;;;;;7.20;5.05;;;;;;;0.90;69.68;94661.63;4201935;28;20106;-69
2021/03/11 04:22:26;;;;;;;6.80;5.35;;;;;;;0.89;69.43;94663.38;4207591;28;20099;-71
2021/03/11 04:24:27;;;;;;;6.82;5.45;;;;;;;0.90;69.49;94666.78;4223753;27;20039;-70
2021/03/11 04:26:29;;;;;;;6.10;5.38;;;;;;;0.88;69.11;94678.97;4227094;28;20040;-70
2021/03/11 04:28:32;;;;;;;6.53;5.28;;;;;;;0.77;69.34;94675.31;4229722;28;20055;-82
2021/03/11 04:30:34;;;;;;;7.20;5.32;;;;;;;0.72;69.82;94668.84;4215166;28;20044;-82
2021/03/11 04:32:36;;;;;;;7.03;5.72;;;;;;;0.61;69.73;94670.34;4212844;28;20047;-85
2021/03/11 04:34:38;;;;;;;7.57;5.15;;;;;;;0.71;69.79;94672.31;4213770;28;20048;-83
2021/03/11 04:36:39;;;;;;;7.18;5.50;;;;;;;0.76;70.40;94678.03;4197049;28;20054;-84
2021/03/11 04:38:41;;;;;;;8.27;5.75;;;;;;;0.82;69.67;94681.03;4225134;28;20544;-84
2021/03/11 04:40:42;;;;;;;7.95;6.10;;;;;;;0.78;70.28;94687.31;4217822;28;20113;-84
2021/03/11 04:42:44;;;;;;;8.10;5.55;;;;;;;0.84;69.84;94688.66;4213203;28;20044;-85
2021/03/11 04:44:45;;;;;;;7.15;5.80;;;;;;;0.89;69.61;94690.94;4215234;28;20052;-84
2021/03/11 04:46:47;;;;;;;7.28;5.50;;;;;;;0.94;69.11;94694.84;4214043;28;20423;-83
2021/03/11 04:48:49;;;;;;;5.28;4.07;;;;;;;0.37;66.55;94690.81;4214998;28;20043;-83
2021/03/11 04:50:51;;;;;;;6.15;3.95;;;;;;;0.49;67.56;94691.75;4214013;28;20056;-84
2021/03/11 04:52:52;;;;;;;7.03;4.95;;;;;;;0.37;68.45;94697.72;4196412;28;20434;-69
2021/03/11 04:54:54;;;;;;;8.13;5.22;;;;;;;-0.30;69.90;94705.28;4199404;28;20040;-71
2021/03/11 04:56:55;;;;;;;6.95;5.68;;;;;;;-0.51;72.58;94704.84;4220110;27;20043;-70
2021/03/11 04:58:57;;;;;;;7.13;4.60;;;;;;;-0.36;71.13;94703.94;4215616;28;20518;-71
2021/03/11 05:00:59;;;;;;;9.38;5.68;;;;;;;-0.33;71.99;94714.03;4226502;28;20055;-71
2021/03/11 05:03:01;;;;;;;7.93;5.45;;;;;;;-0.30;72.32;94703.56;4209658;28;20537;-72
2021/03/11 05:05:07;;;;;;;8.52;5.93;;;;;;;-0.09;72.04;94708.31;4225728;28;20048;-71
2021/03/11 05:07:08;;;;;;;8.38;5.75;;;;;;;0.09;71.68;94719.22;4216055;28;20047;-70
2021/03/11 05:09:09;;;;;;;8.48;6.50;;;;;;;0.25;70.89;94719.91;4181500;28;20086;-69
2021/03/11 05:11:12;;;;;;;7.93;6.05;;;;;;;0.38;70.89;94723.38;4223698;28;20047;-71
2021/03/11 05:13:13;;;;;;;9.20;5.93;;;;;;;0.49;70.60;94716.72;4208746;28;20055;-70
2021/03/11 05:15:14;;;;;;;6.93;3.92;;;;;;;0.34;66.87;94719.31;4235851;27;20147;-70
2021/03/11 05:17:18;;;;;;;5.82;4.15;;;;;;;0.38;67.20;94725.13;4199921;28;20084;-69
2021/03/11 05:19:19;;;;;;;8.88;6.22;;;;;;;0.35;68.67;94726.16;4208945;28;20044;-71
2021/03/11 05:21:20;;;;;;;7.88;6.13;;;;;;;0.20;68.43;94730.50;4208903;28;20105;-70
2021/03/11 05:23:32;;;;;;;8.57;5.68;;;;;;;0.07;68.40;94732.19;4205977;28;20047;-70
2021/03/11 05:25:33;;;;;;;8.07;5.82;;;;;;;0.01;68.67;94729.19;4208227;28;20142;-70
2021/03/11 05:27:34;;;;;;;8.25;4.60;;;;;;;-0.25;68.29;94732.41;4209164;28;20527;-71
2021/03/11 05:29:35;;;;;;;7.25;4.93;;;;;;;-0.32;69.10;94733.72;4209298;28;20040;-70
2021/03/11 05:31:37;;;;;;;5.53;4.28;;;;;;;-0.23;69.16;94740.88;4206312;28;20051;-71
2021/03/11 05:33:39;;;;;;;9.32;6.07;;;;;;;-0.04;69.51;94734.63;4208115;28;20083;-70
2021/03/11 05:35:41;;;;;;;5.95;4.00;;;;;;;-0.29;68.92;94745.56;4210157;28;20488;-71
2021/03/11 05:37:42;;;;;;;5.70;3.50;;;;;;;-0.34;68.81;94734.72;4226891;28;20313;-70
2021/03/11 05:39:43;;;;;;;6.95;3.40;;;;;;;-0.36;68.99;94742.53;4209767;28;20609;-69
2021/03/11 05:41:45;;;;;;;7.00;3.47;;;;;;;-0.40;69.09;94748.78;4209120;28;20052;-71
2021/03/11 05:43:46;;;;;;;3.88;2.78;;;;;;;-0.75;69.75;94754.28;4211737;28;20055;-70
2021/03/11 05:45:47;;;;;;;2.85;2.10;;;;;;;-0.89;69.27;94757.63;4228593;28;20047;-72
2021/03/11 05:47:50;;;;;;;4.03;2.83;;;;;;;-0.63;70.29;94750.16;4218369;28;20048;-71
2021/03/11 05:49:52;;;;;;;3.90;2.78;;;;;;;-0.52;68.96;94758.06;4211888;28;20044;-71
2021/03/11 05:51:53;;;;;;;4.20;2.47;;;;;;;-0.70;69.01;94759.97;4209478;28;20052;-72
2021/03/11 05:53:58;;;;;;;3.63;2.70;;;;;;;-0.77;70.08;94766.41;4225688;27;20051;-71
2021/03/11 05:56:00;;;;;;;3.53;2.58;;;;;;;-0.86;69.29;94765.19;4220088;28;20052;-71
2021/03/11 05:58:02;;;;;;;3.88;2.50;;;;;;;-0.69;69.66;94768.50;4230980;28;20662;-71
2021/03/11 06:00:04;;;;;;;4.60;2.58;;;;;;;-0.53;68.75;94769.28;4211132;28;20048;-71
2021/03/11 06:02:07;;;;;;;4.40;2.83;;;;;;;-0.23;68.00;94770.94;4211627;28;20051;-71
2021/03/11 06:04:08;;;;;;;4.22;2.38;;;;;;;-0.02;67.85;94772.22;4229580;28;20139;-70
2021/03/11 06:06:09;;;;;;;3.10;2.30;;;;;;;0.02;66.37;94772.84;4212879;28;20058;-72
2021/03/11 06:08:11;;;;;;;5.97;3.83;;;;;;;-0.06;67.68;94775.91;4225489;28;20464;-72
2021/03/11 06:10:14;;;;;;;10.02;6.28;;;;;;;0.17;68.06;94789.13;4237989;27;20085;-71
2021/03/11 06:12:16;;;;;;;3.72;2.60;;;;;;;-0.06;67.50;94790.53;4229170;28;20509;-72
2021/03/11 06:14:18;;;;;;;7.97;2.50;;;;;;;0.14;66.76;94799.63;4230678;28;20051;-71
2021/03/11 06:16:23;;;;;;;4.25;2.65;;;;;;;0.28;67.11;94802.19;4218868;28;20055;-72
2021/03/11 06:18:25;;;;;;;5.43;3.03;;;;;;;-0.15;66.89;94804.78;4221148;28;20093;-71
2021/03/11 06:20:26;;;;;;;4.57;3.15;;;;;;;-0.03;66.79;94809.19;4214236;28;20501;-70
2021/03/11 06:22:28;;;;;;;5.15;3.50;;;;;;;0.18;67.41;94814.78;4230261;28;20090;-70
2021/03/11 06:24:30;;;;;;;6.55;3.60;;;;;;;0.37;66.75;94821.41;4230958;28;20043;-71
2021/03/11 06:26:31;;;;;;;7.15;4.45;;;;;;;0.56;66.25;94823.66;4229509;28;20149;-70
2021/03/11 06:28:44;;;;;;;7.95;5.32;;;;;;;0.02;66.49;94842.38;4230804;28;20055;-73
2021/03/11 06:30:45;;;;;;;9.82;5.95;;;;;;;-0.09;67.85;94834.47;4209747;28;20044;-72
2021/03/11 06:32:56;;;;;;;8.70;6.07;;;;;;;-0.23;67.68;94837.88;4229305;28;20050;-71
2021/03/11 06:34:57;;;;;;;5.97;3.75;;;;;;;-0.76;68.36;94852.09;4215666;28;20048;-85
2021/03/11 06:36:59;;;;;;;7.07;4.47;;;;;;;-0.52;68.82;94850.69;4226705;28;20052;-84
2021/03/11 06:39:00;;;;;;;7.13;4.20;;;;;;;-0.39;68.85;94850.81;4220855;28;20522;-85
2021/03/11 06:41:01;;;;;;;5.65;3.90;;;;;;;-0.41;68.65;94852.66;4222442;28;20050;-86
2021/03/11 06:43:13;;;;;;;5.15;3.50;;;;;;;-0.45;69.24;94857.16;4224170;28;20044;-86
2021/03/11 06:45:20;;;;;;;5.00;3.55;;;;;;;-0.57;68.70;94865.56;4240262;28;20478;-85
2021/03/11 06:47:25;;;;;;;6.47;4.30;;;;;;;-0.55;69.21;94868.91;4221118;28;20063;-86
2021/03/11 06:49:26;;;;;;;7.45;4.70;;;;;;;-0.44;68.91;94876.00;4241951;28;20138;-85
2021/03/11 06:51:27;;;;;;;6.53;4.40;;;;;;;-0.39;69.26;94880.88;4249239;28;20100;-83
2021/03/11 06:53:29;;;;;;;8.88;4.72;;;;;;;-0.31;68.63;94881.28;4242778;28;20069;-85
2021/03/11 06:55:31;;;;;;;7.35;4.20;;;;;;;-0.38;68.61;94890.28;4236034;28;20040;-87
2021/03/11 06:57:43;;;;;;;6.63;4.50;;;;;;;-0.21;69.13;94890.13;4222569;28;20040;-85
2021/03/11 06:59:44;;;;;;;6.93;4.60;;;;;;;-0.15;70.03;94896.66;4217644;28;20450;-87
2021/03/11 07:01:50;;;;;;;8.05;4.45;;;;;;;0.16;69.66;94899.06;4218745;28;20131;-86
2021/03/11 07:03:52;;;;;;;6.50;4.40;;;;;;;0.22;68.10;94891.91;4209285;28;20085;-85
2021/03/11 07:05:56;;;;;;;5.85;4.05;;;;;;;0.34;67.88;94884.25;4229974;28;20054;-86
2021/03/11 07:08:16;;;;;;;7.72;4.30;;;;;;;0.29;67.00;94886.28;4240879;28;20047;-87
2021/03/11 07:10:32;;;;;;;7.28;4.32;;;;;;;-0.03;68.10;94883.06;4212271;28;20101;-86
2021/03/11 07:12:57;;;;;;;7.10;4.95;;;;;;;0.36;69.23;94876.44;4220777;28;20048;-85
2021/03/11 07:15:10;;;;;;;7.30;5.03;;;;;;;0.78;69.88;94888.44;4217895;28;20055;-86
2021/03/11 07:17:24;;;;;;;6.18;4.10;;;;;;;1.02;65.96;94877.53;4212684;28;20055;-90
2021/03/11 07:19:27;;;;;;;5.82;3.72;;;;;;;0.90;65.47;94886.03;4217749;28;20040;-89
2021/03/11 07:21:43;;;;;;;6.07;4.28;;;;;;;0.74;66.45;94899.06;4235315;28;20043;-84
2021/03/11 07:23:48;;;;;;;5.47;3.45;;;;;;;0.07;67.39;94911.69;4216532;28;20146;-87
2021/03/11 07:25:50;;;;;;;8.18;4.68;;;;;;;-0.09;68.43;94925.44;4224041;28;20048;-85
2021/03/11 07:27:51;;;;;;;8.73;5.35;;;;;;;-0.15;69.17;94933.53;4212583;28;20067;-73
2021/03/11 07:30:03;;;;;;;6.95;4.55;;;;;;;-0.18;68.34;94931.13;4229132;28;20059;-71
2021/03/11 07:32:05;;;;;;;9.15;5.18;;;;;;;-0.01;68.73;94925.00;4226463;28;20074;-71
2021/03/11 07:34:08;;;;;;;6.93;4.32;;;;;;;-0.05;69.12;94926.09;4227567;28;20536;-72
2021/03/11 07:36:10;;;;;;;39.63;20.65;;;;;;;0.25;69.42;94923.47;4211219;28;20090;-73
2021/03/11 07:38:22;;;;;;;21.52;11.73;;;;;;;0.56;68.14;94919.03;4218430;28;20086;-72
2021/03/11 07:40:25;;;;;;;8.60;4.40;;;;;;;0.40;66.83;94939.75;4201810;28;20048;-71
2021/03/11 07:42:27;;;;;;;6.93;3.95;;;;;;;0.15;67.13;94945.53;4227723;27;20055;-70
2021/03/11 07:44:30;;;;;;;6.53;4.50;;;;;;;0.38;67.11;94936.44;4215530;28;20595;-85
2021/03/11 07:46:31;;;;;;;7.15;4.78;;;;;;;0.31;66.97;94936.00;4216891;28;20109;-86
2021/03/11 07:48:33;;;;;;;7.40;4.65;;;;;;;0.41;67.41;94946.59;4211361;28;20059;-85
2021/03/11 07:50:35;;;;;;;10.30;5.50;;;;;;;0.52;67.45;94943.38;4205785;28;20044;-85
2021/03/11 07:52:37;;;;;;;6.63;4.28;;;;;;;0.58;66.53;94942.97;4237928;28;20051;-86
2021/03/11 07:54:39;;;;;;;21.05;11.48;;;;;;;0.80;66.96;94948.50;4217120;28;20048;-88
2021/03/11 07:56:40;;;;;;;10.93;6.28;;;;;;;0.86;66.54;94949.88;4234158;28;20131;-86
2021/03/11 07:58:46;;;;;;;14.88;8.40;;;;;;;0.68;66.46;94958.72;4234026;28;20486;-87
2021/03/11 08:00:48;;;;;;;9.50;5.80;;;;;;;0.47;67.24;94960.84;4229181;28;20490;-72
2021/03/11 08:02:53;;;;;;;31.80;15.55;;;;;;;0.30;68.29;94954.97;4198242;28;20046;-71
2021/03/11 08:04:55;;;;;;;24.20;11.27;;;;;;;0.55;68.60;94963.81;4200304;28;20052;-73
2021/03/11 08:07:15;;;;;;;17.92;10.05;;;;;;;0.50;67.67;94965.84;4205187;28;20494;-71
2021/03/11 08:09:34;;;;;;;8.68;4.85;;;;;;;0.26;67.97;94974.09;4217078;28;20074;-71
2021/03/11 08:11:40;;;;;;;7.38;4.30;;;;;;;0.19;67.49;94975.34;4202706;28;20130;-73
2021/03/11 08:13:41;;;;;;;7.22;5.07;;;;;;;0.02;68.30;94980.66;4241651;27;20521;-71
2021/03/11 08:15:43;;;;;;;7.50;4.10;;;;;;;-0.28;69.46;94984.06;4241479;27;20432;-71
2021/03/11 08:17:49;;;;;;;6.65;3.95;;;;;;;-0.24;69.47;94982.97;4222288;28;20131;-73
2021/03/11 08:19:51;;;;;;;6.65;4.13;;;;;;;-0.29;68.80;94982.41;4227500;27;20040;-73
2021/03/11 08:21:53;;;;;;;6.80;4.18;;;;;;;-0.06;68.38;94984.50;4228897;28;20547;-71
2021/03/11 08:23:55;;;;;;;6.72;4.43;;;;;;;0.20;68.35;94980.44;4210170;28;20054;-73
2021/03/11 08:25:57;;;;;;;6.53;4.15;;;;;;;0.08;67.56;94991.44;4218240;28;20051;-72
2021/03/11 08:28:08;;;;;;;9.93;5.88;;;;;;;-0.24;68.94;94983.81;4224177;28;20060;-72
2021/03/11 08:30:40;;;;;;;5.57;4.03;;;;;;;-0.39;69.26;94991.56;4226894;28;20471;-72
2021/03/11 08:32:48;;;;;;;10.77;4.45;;;;;;;-0.23;70.45;94994.94;4208712;28;20131;-72
2021/03/11 08:34:49;;;;;;;8.68;5.20;;;;;;;-0.19;70.89;94996.44;4238855;27;20750;-72
2021/03/11 08:36:57;;;;;;;7.47;5.13;;;;;;;0.00;70.05;94998.78;4237237;27;20100;-74
2021/03/11 08:38:58;;;;;;;6.35;4.20;;;;;;;-0.40;69.00;95001.03;4219849;28;20051;-72
2021/03/11 08:41:11;;;;;;;11.00;6.60;;;;;;;-0.08;69.55;94996.66;4227353;28;20101;-71
2021/03/11 08:43:44;;;;;;;7.13;4.80;;;;;;;0.28;68.29;94992.03;4191245;28;20143;-73
2021/03/11 08:45:51;;;;;;;6.60;4.53;;;;;;;0.56;68.04;94980.91;4225427;28;20126;-74
2021/03/11 08:48:12;;;;;;;9.77;5.80;;;;;;;0.94;67.37;94995.84;4211084;28;20056;-72
2021/03/11 08:50:33;;;;;;;13.13;7.03;;;;;;;0.64;67.14;95004.50;4228315;28;20046;-72
2021/03/11 08:52:42;;;;;;;10.10;6.45;;;;;;;0.44;68.63;94999.69;4226852;28;20060;-72
2021/03/11 08:54:44;;;;;;;7.38;4.55;;;;;;;0.25;67.52;94997.38;4208816;28;20499;-71
2021/03/11 08:56:45;;;;;;;14.82;7.03;;;;;;;0.55;67.17;94994.72;4221694;28;20055;-71
2021/03/11 08:59:06;;;;;;;11.48;5.80;;;;;;;0.63;65.88;94994.28;4215197;28;20483;-72
2021/03/11 09:01:09;;;;;;;10.10;5.93;;;;;;;0.66;65.42;95005.22;4226767;28;20051;-71
2021/03/11 09:03:35;;;;;;;13.80;6.68;;;;;;;0.73;66.41;95003.09;4205306;28;20048;-71
2021/03/11 09:05:47;;;;;;;7.85;4.95;;;;;;;0.81;65.74;95000.91;4215594;28;20043;-71
2021/03/11 09:08:08;;;;;;;7.80;5.40;;;;;;;0.62;66.61;95006.34;4236742;27;20643;-70
2021/03/11 09:10:21;;;;;;;6.95;4.82;;;;;;;0.68;68.19;95008.53;4223783;28;20104;-72
2021/03/11 09:12:26;;;;;;;13.80;6.50;;;;;;;0.68;67.64;95010.31;4225372;28;20055;-73
2021/03/11 09:14:28;;;;;;;7.05;4.72;;;;;;;0.87;67.44;95015.19;4209275;28;20079;-72
2021/03/11 09:16:29;;;;;;;8.43;4.90;;;;;;;1.01;66.60;95018.59;4227207;28;20471;-85
2021/03/11 09:18:31;;;;;;;10.60;7.00;;;;;;;0.63;67.25;95020.91;4234167;28;20079;-84
2021/03/11 09:20:32;;;;;;;6.82;5.05;;;;;;;0.60;67.46;95029.66;4241721;28;20050;-85
2021/03/11 09:22:56;;;;;;;10.48;6.05;;;;;;;0.68;68.13;95031.75;4247117;28;20081;-83
2021/03/11 09:24:57;;;;;;;9.18;5.35;;;;;;;0.75;68.13;95032.22;4232046;28;20040;-85
2021/03/11 09:26:58;;;;;;;8.60;6.45;;;;;;;0.50;68.99;95035.44;4233357;28;20050;-71
2021/03/11 09:29:01;;;;;;;6.30;4.45;;;;;;;-0.02;68.42;95042.66;4226446;28;20047;-72
2021/03/11 09:31:02;;;;;;;6.82;5.45;;;;;;;0.29;69.72;95040.06;4207637;28;20109;-72
2021/03/11 09:33:22;;;;;;;10.98;5.60;;;;;;;0.37;68.58;95043.06;4226261;28;20506;-71
2021/03/11 09:35:25;;;;;;;6.80;4.78;;;;;;;0.08;68.23;95044.72;4225332;28;20058;-74
2021/03/11 09:37:43;;;;;;;7.60;5.25;;;;;;;0.17;68.14;95044.19;4211330;28;20135;-72
2021/03/11 09:40:11;;;;;;;8.27;5.65;;;;;;;-0.08;68.79;95037.84;4215836;28;20048;-71
2021/03/11 09:42:12;;;;;;;9.98;6.47;;;;;;;0.00;70.55;95040.00;4205116;28;20056;-72
2021/03/11 09:44:13;;;;;;;8.55;6.05;;;;;;;0.07;69.71;95040.50;4211915;28;20068;-71
2021/03/11 09:46:17;;;;;;;6.43;4.43;;;;;;;-0.15;67.88;95039.13;4225503;28;20059;-72
2021/03/11 09:48:21;;;;;;;7.43;5.47;;;;;;;-0.03;69.46;95043.56;4212425;28;20047;-71
2021/03/11 09:50:23;;;;;;;8.35;5.50;;;;;;;0.16;68.72;95045.09;4227185;28;20047;-72